Aérodrome :
LOGIN :

S'inscrire | Disclaimer

   EN    FR    IT 

 










Légende :    VFR   VFR Marginal   IFR   IFR Intensif   IFR Très Intensif
Visi : 
Plafond : 
>= 8 km
>= 3000ft
5 à 8 km
1000 à 3000 ft
1500m à 5 km
500 à 1000 ft
800 à 1500m
200 à 500 ft
< 800m
< 200 ft
Symboles :   Orages  Brouillard  Fortes neiges  Fortes précipitations  Vent > 20 kt
SIGMETs :   Divers  Orages  Givrage  Turbulence  Onde Orograph.  Cendres Volcan.






- Altitude de l'aérodrome : 83 ft
- Code IATA : LHR


EGLL - London Heathrow

DERNIER METAR :
  • 200050Z AUTO 22012KT 9999 FEW014/// SCT021/// OVC037/// 09/07 Q1013

METARs EXPIRÉS :
  • 192350Z AUTO 22012KT 9999 BKN019 BKN025 OVC032 09/06 Q1013 NOSIG
  • 192320Z AUTO 22011KT 9999 BKN019 BKN024 09/06 Q1014
  • 192250Z AUTO 23016KT 9999 FEW020 BKN043 09/06 Q1014
  • 192220Z AUTO 22012KT 9999 BKN041 09/06 Q1014 NOSIG

TAF AMD TAF EGLL
Valide du 20 à 00h jusqu'au 21 à 06h UTC


200009Z 2000/2106 22012KT 9999 FEW018 BKN035
TEMPO 2000/2010 4000 RADZ BKN014
PROB30
TEMPO 2000/2006 21015G25KT
BECMG 2006/2009 20015G25KT
TEMPO 2010/2015 21020G35KT 6000 RA BKN012
PROB40
TEMPO 2011/2014 4000 +RA
BECMG 2013/2016 27020G30KT
PROB40
TEMPO 2015/2018 6000 SHRA BKN014
BECMG 2017/2020 26012KT CAVOK



MET'MAP, la Météo Aéronautique d'un coup d'oeil ! - Copyright ORBIFLY Décembre 2007 - Disclaimer

ORBIFLY MET'MAP TEAM :

Programmation & Développement : Alexandra Zaïnal
Sur une idée originale de : Baudouin d'Aumeries
Assistance à la programmation : Marc-Olivier Méhu
Soutien technique & logistique : Manuel Goepfert

Contact : metmap@orbifly.com




SOURCES & CREDITS :

   NOAA